sensor_id;sensor_type;location;lat;lon;timestamp;pressure;altitude;pressure_sealevel;temperature;humidity
25420;BME280;13354;48.174;11.566;2023-04-09T00:01:24;96314.38;;;5.49;89.25
25420;BME280;13354;48.174;11.566;2023-04-09T00:03:49;96304.25;;;5.54;88.93
25420;BME280;13354;48.174;11.566;2023-04-09T00:06:15;96310.22;;;5.56;88.94
25420;BME280;13354;48.174;11.566;2023-04-09T00:08:40;96306.72;;;5.55;89.06
25420;BME280;13354;48.174;11.566;2023-04-09T00:11:05;96310.63;;;5.51;89.44
25420;BME280;13354;48.174;11.566;2023-04-09T00:13:30;96309.50;;;5.54;89.39
25420;BME280;13354;48.174;11.566;2023-04-09T00:15:56;96304.97;;;5.56;89.46
25420;BME280;13354;48.174;11.566;2023-04-09T00:18:21;96306.59;;;5.57;89.10
25420;BME280;13354;48.174;11.566;2023-04-09T00:20:46;96300.22;;;5.60;89.41
25420;BME280;13354;48.174;11.566;2023-04-09T00:23:11;96303.69;;;5.60;88.74
25420;BME280;13354;48.174;11.566;2023-04-09T00:25:36;96300.22;;;5.60;88.59
25420;BME280;13354;48.174;11.566;2023-04-09T00:28:02;96293.94;;;5.70;88.17
25420;BME280;13354;48.174;11.566;2023-04-09T00:30:27;96299.50;;;5.67;87.53
25420;BME280;13354;48.174;11.566;2023-04-09T00:32:52;96292.03;;;5.63;87.62
25420;BME280;13354;48.174;11.566;2023-04-09T00:35:18;96289.41;;;5.63;87.58
25420;BME280;13354;48.174;11.566;2023-04-09T00:37:43;96292.44;;;5.68;87.72
25420;BME280;13354;48.174;11.566;2023-04-09T00:40:08;96290.41;;;5.62;87.08
25420;BME280;13354;48.174;11.566;2023-04-09T00:42:34;96291.66;;;5.57;86.91
25420;BME280;13354;48.174;11.566;2023-04-09T00:45:00;96291.81;;;5.56;87.03
25420;BME280;13354;48.174;11.566;2023-04-09T00:47:25;96295.13;;;5.58;87.35
25420;BME280;13354;48.174;11.566;2023-04-09T00:49:52;96290.69;;;5.58;87.21
25420;BME280;13354;48.174;11.566;2023-04-09T00:52:17;96290.56;;;5.60;86.97
25420;BME280;13354;48.174;11.566;2023-04-09T00:54:42;96295.13;;;5.58;87.45
25420;BME280;13354;48.174;11.566;2023-04-09T00:57:07;96292.94;;;5.53;87.53
25420;BME280;13354;48.174;11.566;2023-04-09T00:59:35;96294.44;;;5.56;87.31
25420;BME280;13354;48.174;11.566;2023-04-09T01:02:00;96287.94;;;5.60;87.44
25420;BME280;13354;48.174;11.566;2023-04-09T01:04:25;96297.47;;;5.61;87.02
25420;BME280;13354;48.174;11.566;2023-04-09T01:06:51;96285.97;;;5.62;86.86
25420;BME280;13354;48.174;11.566;2023-04-09T01:09:26;96290.09;;;5.65;86.70
25420;BME280;13354;48.174;11.566;2023-04-09T01:14:48;96286.50;;;5.66;86.16
25420;BME280;13354;48.174;11.566;2023-04-09T01:17:21;96280.81;;;5.70;85.87
25420;BME280;13354;48.174;11.566;2023-04-09T01:19:57;96284.69;;;5.66;85.82
25420;BME280;13354;48.174;11.566;2023-04-09T01:27:23;96282.53;;;5.62;84.80
25420;BME280;13354;48.174;11.566;2023-04-09T01:29:52;96282.34;;;5.63;83.93
25420;BME280;13354;48.174;11.566;2023-04-09T01:32:18;96286.22;;;5.69;83.00
25420;BME280;13354;48.174;11.566;2023-04-09T01:34:45;96277.50;;;5.68;83.23
25420;BME280;13354;48.174;11.566;2023-04-09T01:37:11;96284.28;;;5.71;83.41
25420;BME280;13354;48.174;11.566;2023-04-09T01:39:37;96286.06;;;5.70;83.07
25420;BME280;13354;48.174;11.566;2023-04-09T01:42:02;96282.91;;;5.67;82.70
25420;BME280;13354;48.174;11.566;2023-04-09T01:44:28;96292.97;;;5.71;82.26
25420;BME280;13354;48.174;11.566;2023-04-09T01:46:54;96293.41;;;5.67;82.87
25420;BME280;13354;48.174;11.566;2023-04-09T01:49:22;96290.78;;;5.67;83.47
25420;BME280;13354;48.174;11.566;2023-04-09T01:51:47;96289.22;;;5.74;82.87
25420;BME280;13354;48.174;11.566;2023-04-09T01:54:12;96288.69;;;5.70;82.58
25420;BME280;13354;48.174;11.566;2023-04-09T01:56:44;96284.41;;;5.69;82.51
25420;BME280;13354;48.174;11.566;2023-04-09T01:59:09;96282.91;;;5.67;82.48
25420;BME280;13354;48.174;11.566;2023-04-09T02:01:37;96290.66;;;5.68;82.59
25420;BME280;13354;48.174;11.566;2023-04-09T02:04:08;96284.28;;;5.71;82.87
25420;BME280;13354;48.174;11.566;2023-04-09T02:06:37;96287.72;;;5.71;82.63
25420;BME280;13354;48.174;11.566;2023-04-09T02:09:05;96283.97;;;5.74;82.96
25420;BME280;13354;48.174;11.566;2023-04-09T02:11:31;96291.84;;;5.74;82.60
25420;BME280;13354;48.174;11.566;2023-04-09T02:13:57;96291.19;;;5.72;81.86
25420;BME280;13354;48.174;11.566;2023-04-09T02:16:23;96287.88;;;5.70;82.08
25420;BME280;13354;48.174;11.566;2023-04-09T02:18:52;96292.00;;;5.72;82.27
25420;BME280;13354;48.174;11.566;2023-04-09T02:21:19;96289.00;;;5.67;82.55
25420;BME280;13354;48.174;11.566;2023-04-09T02:23:44;96284.03;;;5.64;82.52
25420;BME280;13354;48.174;11.566;2023-04-09T02:26:09;96288.75;;;5.61;83.35
25420;BME280;13354;48.174;11.566;2023-04-09T02:28:34;96279.19;;;5.60;83.61
25420;BME280;13354;48.174;11.566;2023-04-09T02:30:59;96284.44;;;5.60;83.50
25420;BME280;13354;48.174;11.566;2023-04-09T02:33:25;96286.56;;;5.56;83.95
25420;BME280;13354;48.174;11.566;2023-04-09T02:35:50;96287.41;;;5.56;84.04
25420;BME280;13354;48.174;11.566;2023-04-09T02:38:15;96284.06;;;5.54;84.01
25420;BME280;13354;48.174;11.566;2023-04-09T02:40:40;96290.41;;;5.62;84.48
25420;BME280;13354;48.174;11.566;2023-04-09T02:43:06;96282.06;;;5.66;84.02
25420;BME280;13354;48.174;11.566;2023-04-09T02:45:32;96284.41;;;5.69;83.49
25420;BME280;13354;48.174;11.566;2023-04-09T02:47:57;96290.47;;;5.70;83.60
25420;BME280;13354;48.174;11.566;2023-04-09T02:50:22;96282.47;;;5.71;83.66
25420;BME280;13354;48.174;11.566;2023-04-09T02:52:48;96284.56;;;5.68;83.67
25420;BME280;13354;48.174;11.566;2023-04-09T02:55:13;96279.44;;;5.66;83.71
25420;BME280;13354;48.174;11.566;2023-04-09T02:57:39;96273.66;;;5.63;83.86
25420;BME280;13354;48.174;11.566;2023-04-09T03:00:04;96267.66;;;5.70;83.76
25420;BME280;13354;48.174;11.566;2023-04-09T03:02:29;96273.84;;;5.79;83.25
25420;BME280;13354;48.174;11.566;2023-04-09T03:04:54;96268.59;;;5.79;82.51
25420;BME280;13354;48.174;11.566;2023-04-09T03:07:20;96266.63;;;5.81;82.31
25420;BME280;13354;48.174;11.566;2023-04-09T03:09:46;96256.53;;;5.86;82.37
25420;BME280;13354;48.174;11.566;2023-04-09T03:12:11;96261.66;;;5.78;83.02
25420;BME280;13354;48.174;11.566;2023-04-09T03:14:36;96258.91;;;5.79;83.36
25420;BME280;13354;48.174;11.566;2023-04-09T03:17:01;96254.44;;;5.90;82.74
25420;BME280;13354;48.174;11.566;2023-04-09T03:19:26;96259.78;;;5.98;82.48
25420;BME280;13354;48.174;11.566;2023-04-09T03:21:52;96258.69;;;5.91;82.29
25420;BME280;13354;48.174;11.566;2023-04-09T03:24:17;96258.34;;;5.86;82.50
25420;BME280;13354;48.174;11.566;2023-04-09T03:26:42;96262.53;;;5.78;82.84
25420;BME280;13354;48.174;11.566;2023-04-09T03:29:07;96266.94;;;5.78;83.04
25420;BME280;13354;48.174;11.566;2023-04-09T03:31:32;96279.16;;;5.69;82.64
25420;BME280;13354;48.174;11.566;2023-04-09T03:33:58;96268.56;;;5.61;82.62
25420;BME280;13354;48.174;11.566;2023-04-09T03:36:23;96280.47;;;5.55;83.87
25420;BME280;13354;48.174;11.566;2023-04-09T03:38:48;96284.91;;;5.55;84.15
25420;BME280;13354;48.174;11.566;2023-04-09T03:41:13;96282.44;;;5.53;84.25
25420;BME280;13354;48.174;11.566;2023-04-09T03:43:39;96269.44;;;5.52;84.52
25420;BME280;13354;48.174;11.566;2023-04-09T03:46:14;96282.47;;;5.44;84.92
25420;BME280;13354;48.174;11.566;2023-04-09T03:48:39;96288.69;;;5.43;85.37
25420;BME280;13354;48.174;11.566;2023-04-09T03:51:05;96287.47;;;5.37;85.39
25420;BME280;13354;48.174;11.566;2023-04-09T03:53:30;96289.31;;;5.27;85.65
25420;BME280;13354;48.174;11.566;2023-04-09T03:55:56;96290.97;;;5.28;85.96
25420;BME280;13354;48.174;11.566;2023-04-09T03:58:21;96290.69;;;5.31;85.92
25420;BME280;13354;48.174;11.566;2023-04-09T04:00:46;96294.03;;;5.23;85.78
25420;BME280;13354;48.174;11.566;2023-04-09T04:03:12;96295.41;;;5.18;86.07
25420;BME280;13354;48.174;11.566;2023-04-09T04:05:38;96294.22;;;5.12;86.37
25420;BME280;13354;48.174;11.566;2023-04-09T04:08:03;96308.44;;;5.09;86.62
25420;BME280;13354;48.174;11.566;2023-04-09T04:10:29;96301.81;;;5.05;86.64
25420;BME280;13354;48.174;11.566;2023-04-09T04:12:54;96301.28;;;5.02;87.13
25420;BME280;13354;48.174;11.566;2023-04-09T04:15:19;96303.75;;;5.03;87.46
25420;BME280;13354;48.174;11.566;2023-04-09T04:17:44;96306.09;;;4.97;87.81
25420;BME280;13354;48.174;11.566;2023-04-09T04:20:10;96303.91;;;4.92;88.06
25420;BME280;13354;48.174;11.566;2023-04-09T04:22:35;96305.72;;;4.92;88.13
25420;BME280;13354;48.174;11.566;2023-04-09T04:25:00;96307.50;;;5.01;88.62
25420;BME280;13354;48.174;11.566;2023-04-09T04:27:26;96303.19;;;5.00;87.98
25420;BME280;13354;48.174;11.566;2023-04-09T04:29:51;96306.09;;;4.97;87.85
25420;BME280;13354;48.174;11.566;2023-04-09T04:32:16;96309.44;;;4.89;87.91
25420;BME280;13354;48.174;11.566;2023-04-09T04:34:41;96312.75;;;4.91;88.03
25420;BME280;13354;48.174;11.566;2023-04-09T04:37:06;96309.28;;;5.00;87.91
25420;BME280;13354;48.174;11.566;2023-04-09T04:39:32;96312.88;;;4.99;87.63
25420;BME280;13354;48.174;11.566;2023-04-09T04:41:58;96305.28;;;4.96;88.06
25420;BME280;13354;48.174;11.566;2023-04-09T04:44:23;96305.94;;;5.08;87.92
25420;BME280;13354;48.174;11.566;2023-04-09T04:46:48;96303.75;;;5.03;87.64
25420;BME280;13354;48.174;11.566;2023-04-09T04:49:13;96299.63;;;5.01;87.74
25420;BME280;13354;48.174;11.566;2023-04-09T04:51:38;96299.59;;;5.11;87.57
25420;BME280;13354;48.174;11.566;2023-04-09T04:54:03;96294.97;;;5.22;87.18
25420;BME280;13354;48.174;11.566;2023-04-09T04:56:29;96288.88;;;5.31;86.54
25420;BME280;13354;48.174;11.566;2023-04-09T04:58:54;96295.34;;;5.37;85.97
25420;BME280;13354;48.174;11.566;2023-04-09T05:01:19;96297.28;;;5.35;85.35
25420;BME280;13354;48.174;11.566;2023-04-09T05:03:44;96290.09;;;5.37;85.68
25420;BME280;13354;48.174;11.566;2023-04-09T05:06:09;96302.00;;;5.31;85.87
25420;BME280;13354;48.174;11.566;2023-04-09T05:08:35;96305.91;;;5.27;85.65
25420;BME280;13354;48.174;11.566;2023-04-09T05:11:00;96307.72;;;5.17;86.11
25420;BME280;13354;48.174;11.566;2023-04-09T05:13:25;96312.44;;;5.04;86.77
25420;BME280;13354;48.174;11.566;2023-04-09T05:15:50;96318.41;;;4.96;87.17
25420;BME280;13354;48.174;11.566;2023-04-09T05:18:16;96318.28;;;4.98;87.47
25420;BME280;13354;48.174;11.566;2023-04-09T05:20:41;96327.41;;;4.94;87.68
25420;BME280;13354;48.174;11.566;2023-04-09T05:23:06;96327.53;;;4.92;87.91
25420;BME280;13354;48.174;11.566;2023-04-09T05:25:34;96337.47;;;4.98;87.73
25420;BME280;13354;48.174;11.566;2023-04-09T05:27:59;96327.25;;;4.95;87.88
25420;BME280;13354;48.174;11.566;2023-04-09T05:30:24;96336.66;;;4.98;87.89
25420;BME280;13354;48.174;11.566;2023-04-09T05:32:50;96336.06;;;5.04;87.44
25420;BME280;13354;48.174;11.566;2023-04-09T05:35:15;96340.38;;;4.95;87.49
25420;BME280;13354;48.174;11.566;2023-04-09T05:37:40;96347.13;;;4.98;87.65
25420;BME280;13354;48.174;11.566;2023-04-09T05:40:06;96346.31;;;4.97;87.53
25420;BME280;13354;48.174;11.566;2023-04-09T05:42:31;96336.50;;;4.99;87.60
25420;BME280;13354;48.174;11.566;2023-04-09T05:44:56;96339.28;;;4.98;88.26
25420;BME280;13354;48.174;11.566;2023-04-09T05:47:21;96335.94;;;4.96;88.61
25420;BME280;13354;48.174;11.566;2023-04-09T05:49:47;96342.44;;;5.01;88.46
25420;BME280;13354;48.174;11.566;2023-04-09T05:52:13;96331.78;;;5.03;89.04
25420;BME280;13354;48.174;11.566;2023-04-09T05:54:38;96335.22;;;5.13;88.95
25420;BME280;13354;48.174;11.566;2023-04-09T05:57:03;96327.03;;;5.26;89.14
25420;BME280;13354;48.174;11.566;2023-04-09T05:59:28;96323.41;;;5.37;87.76
25420;BME280;13354;48.174;11.566;2023-04-09T06:01:54;96326.41;;;5.79;86.70
25420;BME280;13354;48.174;11.566;2023-04-09T06:04:20;96316.69;;;5.89;84.89
25420;BME280;13354;48.174;11.566;2023-04-09T06:06:45;96315.06;;;6.06;83.39
25420;BME280;13354;48.174;11.566;2023-04-09T06:09:11;96314.19;;;6.33;81.97
25420;BME280;13354;48.174;11.566;2023-04-09T06:11:36;96311.69;;;6.85;79.81
25420;BME280;13354;48.174;11.566;2023-04-09T06:14:02;96317.34;;;7.24;77.38
25420;BME280;13354;48.174;11.566;2023-04-09T06:16:27;96324.78;;;7.55;75.20
25420;BME280;13354;48.174;11.566;2023-04-09T06:18:52;96328.63;;;8.03;73.72
25420;BME280;13354;48.174;11.566;2023-04-09T06:21:18;96327.28;;;8.66;71.18
25420;BME280;13354;48.174;11.566;2023-04-09T06:23:43;96330.34;;;9.51;68.10
25420;BME280;13354;48.174;11.566;2023-04-09T06:26:09;96314.09;;;10.64;64.30
25420;BME280;13354;48.174;11.566;2023-04-09T06:28:34;96320.91;;;11.04;61.18
25420;BME280;13354;48.174;11.566;2023-04-09T06:31:00;96326.53;;;12.64;57.34
25420;BME280;13354;48.174;11.566;2023-04-09T06:33:25;96328.31;;;12.78;55.50
25420;BME280;13354;48.174;11.566;2023-04-09T06:35:50;96334.53;;;13.98;52.16
25420;BME280;13354;48.174;11.566;2023-04-09T06:38:16;96337.06;;;13.71;51.23
25420;BME280;13354;48.174;11.566;2023-04-09T06:40:41;96324.81;;;14.86;48.42
25420;BME280;13354;48.174;11.566;2023-04-09T06:43:07;96328.75;;;15.37;47.42
25420;BME280;13354;48.174;11.566;2023-04-09T06:45:32;96328.47;;;16.05;44.84
25420;BME280;13354;48.174;11.566;2023-04-09T06:47:58;96324.31;;;16.60;42.63
25420;BME280;13354;48.174;11.566;2023-04-09T06:50:23;96334.84;;;17.25;41.28
25420;BME280;13354;48.174;11.566;2023-04-09T06:52:49;96326.00;;;17.50;40.52
25420;BME280;13354;48.174;11.566;2023-04-09T06:55:15;96324.38;;;18.10;39.11
25420;BME280;13354;48.174;11.566;2023-04-09T06:57:40;96329.16;;;18.45;38.72
25420;BME280;13354;48.174;11.566;2023-04-09T07:00:06;96337.84;;;18.22;38.57
25420;BME280;13354;48.174;11.566;2023-04-09T07:02:31;96333.56;;;17.03;40.20
25420;BME280;13354;48.174;11.566;2023-04-09T07:04:57;96342.50;;;15.74;41.96
25420;BME280;13354;48.174;11.566;2023-04-09T07:07:22;96351.69;;;14.78;44.35
25420;BME280;13354;48.174;11.566;2023-04-09T07:09:47;96356.03;;;13.12;47.58
25420;BME280;13354;48.174;11.566;2023-04-09T07:12:12;96357.38;;;12.29;50.35
25420;BME280;13354;48.174;11.566;2023-04-09T07:14:38;96346.88;;;11.61;52.14
25420;BME280;13354;48.174;11.566;2023-04-09T07:17:03;96351.69;;;11.28;52.64
25420;BME280;13354;48.174;11.566;2023-04-09T07:19:28;96352.66;;;10.89;54.20
25420;BME280;13354;48.174;11.566;2023-04-09T07:21:53;96363.06;;;10.06;55.71
25420;BME280;13354;48.174;11.566;2023-04-09T07:24:19;96358.41;;;10.08;55.23
25420;BME280;13354;48.174;11.566;2023-04-09T07:26:44;96357.69;;;9.75;56.12
25420;BME280;13354;48.174;11.566;2023-04-09T07:29:09;96361.59;;;9.39;57.40
25420;BME280;13354;48.174;11.566;2023-04-09T07:31:35;96358.28;;;9.37;57.79
25420;BME280;13354;48.174;11.566;2023-04-09T07:34:00;96359.44;;;8.94;58.22
25420;BME280;13354;48.174;11.566;2023-04-09T07:36:25;96361.94;;;8.95;58.82
25420;BME280;13354;48.174;11.566;2023-04-09T07:38:51;96352.88;;;8.74;59.33
25420;BME280;13354;48.174;11.566;2023-04-09T07:41:17;96355.13;;;8.52;59.98
25420;BME280;13354;48.174;11.566;2023-04-09T07:43:42;96359.59;;;8.52;60.45
25420;BME280;13354;48.174;11.566;2023-04-09T07:46:08;96352.31;;;8.54;60.29
25420;BME280;13354;48.174;11.566;2023-04-09T07:48:33;96352.44;;;8.36;60.87
25420;BME280;13354;48.174;11.566;2023-04-09T07:50:58;96353.31;;;8.44;60.51
25420;BME280;13354;48.174;11.566;2023-04-09T07:53:23;96354.81;;;8.47;61.14
25420;BME280;13354;48.174;11.566;2023-04-09T07:55:51;96356.53;;;8.30;61.80
25420;BME280;13354;48.174;11.566;2023-04-09T07:58:16;96358.16;;;8.23;61.66
25420;BME280;13354;48.174;11.566;2023-04-09T08:00:42;96366.56;;;8.18;61.29
25420;BME280;13354;48.174;11.566;2023-04-09T08:03:07;96361.81;;;8.22;61.73
25420;BME280;13354;48.174;11.566;2023-04-09T08:05:32;96357.03;;;8.26;61.21
25420;BME280;13354;48.174;11.566;2023-04-09T08:07:58;96356.06;;;8.35;62.04
25420;BME280;13354;48.174;11.566;2023-04-09T08:10:24;96353.41;;;8.27;62.76
25420;BME280;13354;48.174;11.566;2023-04-09T08:12:49;96359.09;;;8.48;61.73
25420;BME280;13354;48.174;11.566;2023-04-09T08:15:15;96358.28;;;8.64;61.49
25420;BME280;13354;48.174;11.566;2023-04-09T08:17:40;96357.47;;;9.04;60.33
25420;BME280;13354;48.174;11.566;2023-04-09T08:20:05;96351.31;;;9.44;58.67
25420;BME280;13354;48.174;11.566;2023-04-09T08:22:31;96356.03;;;9.82;56.71
25420;BME280;13354;48.174;11.566;2023-04-09T08:24:56;96360.16;;;10.24;55.89
25420;BME280;13354;48.174;11.566;2023-04-09T08:27:22;96357.19;;;10.58;54.58
25420;BME280;13354;48.174;11.566;2023-04-09T08:29:48;96351.47;;;11.30;53.30
25420;BME280;13354;48.174;11.566;2023-04-09T08:32:13;96358.31;;;11.62;52.62
25420;BME280;13354;48.174;11.566;2023-04-09T08:34:38;96361.63;;;11.79;51.17
25420;BME280;13354;48.174;11.566;2023-04-09T08:37:03;96357.25;;;12.01;50.95
25420;BME280;13354;48.174;11.566;2023-04-09T08:39:29;96352.44;;;12.26;49.81
25420;BME280;13354;48.174;11.566;2023-04-09T08:41:54;96342.72;;;12.69;49.48
25420;BME280;13354;48.174;11.566;2023-04-09T08:44:24;96358.06;;;12.89;49.29
25420;BME280;13354;48.174;11.566;2023-04-09T08:46:49;96358.81;;;12.82;49.53
25420;BME280;13354;48.174;11.566;2023-04-09T08:49:15;96363.25;;;13.18;47.09
25420;BME280;13354;48.174;11.566;2023-04-09T08:51:44;96365.13;;;13.03;47.32
25420;BME280;13354;48.174;11.566;2023-04-09T08:54:14;96363.78;;;13.14;46.94
25420;BME280;13354;48.174;11.566;2023-04-09T08:56:40;96371.28;;;13.25;46.48
25420;BME280;13354;48.174;11.566;2023-04-09T08:59:05;96372.03;;;13.19;46.92
25420;BME280;13354;48.174;11.566;2023-04-09T09:01:30;96369.31;;;13.62;45.53
25420;BME280;13354;48.174;11.566;2023-04-09T09:03:57;96363.78;;;13.14;47.34
25420;BME280;13354;48.174;11.566;2023-04-09T09:06:23;96370.75;;;13.36;46.96
25420;BME280;13354;48.174;11.566;2023-04-09T09:09:03;96369.59;;;13.67;46.87
25420;BME280;13354;48.174;11.566;2023-04-09T09:11:29;96369.63;;;13.45;45.69
25420;BME280;13354;48.174;11.566;2023-04-09T09:14:01;96370.38;;;13.18;46.44
25420;BME280;13354;48.174;11.566;2023-04-09T09:16:26;96368.72;;;12.95;47.68
25420;BME280;13354;48.174;11.566;2023-04-09T09:18:52;96370.84;;;13.00;46.85
25420;BME280;13354;48.174;11.566;2023-04-09T09:21:17;96369.88;;;12.86;48.22
25420;BME280;13354;48.174;11.566;2023-04-09T09:23:43;96361.97;;;12.93;48.55
25420;BME280;13354;48.174;11.566;2023-04-09T09:26:15;96378.16;;;12.76;48.33
25420;BME280;13354;48.174;11.566;2023-04-09T09:28:42;96371.88;;;12.63;48.83
25420;BME280;13354;48.174;11.566;2023-04-09T09:31:08;96372.25;;;12.81;49.38
25420;BME280;13354;48.174;11.566;2023-04-09T09:33:33;96371.47;;;13.02;49.34
25420;BME280;13354;48.174;11.566;2023-04-09T09:35:59;96374.88;;;12.74;49.20
25420;BME280;13354;48.174;11.566;2023-04-09T09:38:27;96372.59;;;12.71;49.50
25420;BME280;13354;48.174;11.566;2023-04-09T09:40:52;96376.03;;;12.50;49.22
25420;BME280;13354;48.174;11.566;2023-04-09T09:43:18;96369.38;;;12.40;48.92
25420;BME280;13354;48.174;11.566;2023-04-09T09:45:43;96374.16;;;12.15;50.04
25420;BME280;13354;48.174;11.566;2023-04-09T09:48:10;96380.94;;;11.88;51.40
25420;BME280;13354;48.174;11.566;2023-04-09T09:50:37;96378.63;;;11.70;51.84
25420;BME280;13354;48.174;11.566;2023-04-09T09:53:04;96378.22;;;11.43;51.72
25420;BME280;13354;48.174;11.566;2023-04-09T09:55:30;96376.88;;;11.62;51.90
25420;BME280;13354;48.174;11.566;2023-04-09T09:57:56;96379.53;;;11.62;51.03
25420;BME280;13354;48.174;11.566;2023-04-09T10:00:22;96385.16;;;11.44;52.29
25420;BME280;13354;48.174;11.566;2023-04-09T10:02:56;96378.91;;;11.60;52.77
25420;BME280;13354;48.174;11.566;2023-04-09T10:05:23;96379.78;;;11.52;52.32
25420;BME280;13354;48.174;11.566;2023-04-09T10:07:51;96383.00;;;11.25;52.01
25420;BME280;13354;48.174;11.566;2023-04-09T10:10:16;96378.91;;;11.37;52.18
25420;BME280;13354;48.174;11.566;2023-04-09T10:12:41;96365.16;;;11.42;51.72
25420;BME280;13354;48.174;11.566;2023-04-09T10:15:09;96376.53;;;11.27;52.07
25420;BME280;13354;48.174;11.566;2023-04-09T10:17:34;96376.84;;;11.47;52.29
25420;BME280;13354;48.174;11.566;2023-04-09T10:20:04;96369.28;;;11.74;52.30
25420;BME280;13354;48.174;11.566;2023-04-09T10:22:31;96377.06;;;11.75;50.99
25420;BME280;13354;48.174;11.566;2023-04-09T10:24:57;96372.63;;;12.05;52.15
25420;BME280;13354;48.174;11.566;2023-04-09T10:27:24;96375.38;;;11.97;50.04
25420;BME280;13354;48.174;11.566;2023-04-09T10:29:50;96376.56;;;11.95;50.20
25420;BME280;13354;48.174;11.566;2023-04-09T10:32:22;96372.22;;;11.79;49.49
25420;BME280;13354;48.174;11.566;2023-04-09T10:34:50;96377.28;;;11.89;49.23
25420;BME280;13354;48.174;11.566;2023-04-09T10:37:19;96373.34;;;11.84;49.56
25420;BME280;13354;48.174;11.566;2023-04-09T10:39:46;96375.53;;;11.96;49.78
25420;BME280;13354;48.174;11.566;2023-04-09T10:42:16;96371.78;;;11.75;51.15
25420;BME280;13354;48.174;11.566;2023-04-09T10:44:42;96370.59;;;11.93;50.87
25420;BME280;13354;48.174;11.566;2023-04-09T10:47:08;96379.22;;;12.09;49.82
25420;BME280;13354;48.174;11.566;2023-04-09T10:49:34;96377.56;;;11.94;48.42
25420;BME280;13354;48.174;11.566;2023-04-09T10:59:30;96370.44;;;11.94;48.88
25420;BME280;13354;48.174;11.566;2023-04-09T11:01:56;96368.69;;;12.16;48.81
25420;BME280;13354;48.174;11.566;2023-04-09T11:04:21;96368.94;;;12.21;47.97
25420;BME280;13354;48.174;11.566;2023-04-09T11:06:50;96360.22;;;12.42;48.55
25420;BME280;13354;48.174;11.566;2023-04-09T11:09:16;96359.31;;;12.71;48.33
25420;BME280;13354;48.174;11.566;2023-04-09T11:11:41;96358.28;;;13.65;47.93
25420;BME280;13354;48.174;11.566;2023-04-09T11:14:07;96347.75;;;14.67;46.34
25420;BME280;13354;48.174;11.566;2023-04-09T11:16:32;96348.25;;;15.70;44.52
25420;BME280;13354;48.174;11.566;2023-04-09T11:18:57;96348.03;;;15.19;41.78
25420;BME280;13354;48.174;11.566;2023-04-09T11:21:26;96351.94;;;15.23;40.89
25420;BME280;13354;48.174;11.566;2023-04-09T11:23:52;96345.59;;;15.31;39.71
25420;BME280;13354;48.174;11.566;2023-04-09T11:26:34;96345.19;;;15.67;39.86
25420;BME280;13354;48.174;11.566;2023-04-09T11:29:03;96346.59;;;15.56;40.73
25420;BME280;13354;48.174;11.566;2023-04-09T11:31:28;96348.66;;;15.28;40.50
25420;BME280;13354;48.174;11.566;2023-04-09T11:33:54;96348.00;;;14.86;41.69
25420;BME280;13354;48.174;11.566;2023-04-09T11:36:20;96349.78;;;14.59;41.72
25420;BME280;13354;48.174;11.566;2023-04-09T11:38:46;96352.78;;;14.01;41.72
25420;BME280;13354;48.174;11.566;2023-04-09T11:41:12;96358.22;;;13.51;43.00
25420;BME280;13354;48.174;11.566;2023-04-09T11:43:38;96355.34;;;13.03;43.41
25420;BME280;13354;48.174;11.566;2023-04-09T11:46:05;96369.16;;;12.77;44.70
25420;BME280;13354;48.174;11.566;2023-04-09T11:48:31;96364.88;;;12.76;45.66
25420;BME280;13354;48.174;11.566;2023-04-09T11:50:57;96368.38;;;12.26;46.45
25420;BME280;13354;48.174;11.566;2023-04-09T11:53:22;96374.81;;;12.02;47.16
25420;BME280;13354;48.174;11.566;2023-04-09T11:55:49;96376.28;;;11.90;48.05
25420;BME280;13354;48.174;11.566;2023-04-09T11:58:15;96376.47;;;11.88;48.80
25420;BME280;13354;48.174;11.566;2023-04-09T12:00:41;96370.03;;;11.82;49.43
25420;BME280;13354;48.174;11.566;2023-04-09T12:03:06;96377.94;;;11.91;49.32
25420;BME280;13354;48.174;11.566;2023-04-09T12:05:32;96377.88;;;11.61;48.08
25420;BME280;13354;48.174;11.566;2023-04-09T12:07:58;96369.72;;;11.48;49.28
25420;BME280;13354;48.174;11.566;2023-04-09T12:10:25;96370.72;;;11.47;50.31
25420;BME280;13354;48.174;11.566;2023-04-09T12:12:51;96371.47;;;11.55;49.80
25420;BME280;13354;48.174;11.566;2023-04-09T12:15:23;96373.38;;;11.47;49.00
25420;BME280;13354;48.174;11.566;2023-04-09T12:17:56;96378.75;;;11.39;49.32
25420;BME280;13354;48.174;11.566;2023-04-09T12:22:59;96376.53;;;11.27;51.15
25420;BME280;13354;48.174;11.566;2023-04-09T12:25:25;96365.09;;;11.79;50.86
25420;BME280;13354;48.174;11.566;2023-04-09T12:27:50;96374.34;;;12.13;49.43
25420;BME280;13354;48.174;11.566;2023-04-09T12:30:15;96355.94;;;12.63;48.58
25420;BME280;13354;48.174;11.566;2023-04-09T12:32:41;96358.53;;;12.56;49.13
25420;BME280;13354;48.174;11.566;2023-04-09T12:35:08;96357.16;;;12.60;48.76
25420;BME280;13354;48.174;11.566;2023-04-09T12:37:33;96354.88;;;12.78;49.23
25420;BME280;13354;48.174;11.566;2023-04-09T12:39:59;96360.25;;;12.64;49.37
25420;BME280;13354;48.174;11.566;2023-04-09T12:42:24;96357.72;;;12.77;49.10
25420;BME280;13354;48.174;11.566;2023-04-09T12:44:49;96358.53;;;12.77;47.82
25420;BME280;13354;48.174;11.566;2023-04-09T12:47:14;96361.78;;;12.73;48.95
25420;BME280;13354;48.174;11.566;2023-04-09T12:49:39;96350.56;;;12.77;47.55
25420;BME280;13354;48.174;11.566;2023-04-09T12:52:09;96359.44;;;12.63;47.90
25420;BME280;13354;48.174;11.566;2023-04-09T12:54:34;96354.97;;;12.49;48.28
25420;BME280;13354;48.174;11.566;2023-04-09T12:56:59;96353.31;;;12.48;48.63
25420;BME280;13354;48.174;11.566;2023-04-09T12:59:25;96358.53;;;12.05;49.23
25420;BME280;13354;48.174;11.566;2023-04-09T13:01:50;96359.16;;;11.92;50.14
25420;BME280;13354;48.174;11.566;2023-04-09T13:04:15;96356.03;;;11.74;50.13
25420;BME280;13354;48.174;11.566;2023-04-09T13:06:40;96356.78;;;11.68;50.61